sensor_id;sensor_type;location;lat;lon;timestamp;pressure;altitude;pressure_sealevel;temperature
30765;BMP180;494;48.744;10.106;2024-02-26T00:02:12;92786.00;;;6.20
30765;BMP180;494;48.744;10.106;2024-02-26T00:04:42;93987.00;;;4.30
30765;BMP180;494;48.744;10.106;2024-02-26T00:07:13;92969.00;;;5.90
30765;BMP180;494;48.744;10.106;2024-02-26T00:09:43;94054.00;;;6.10
30765;BMP180;494;48.744;10.106;2024-02-26T00:12:14;94023.00;;;6.20
30765;BMP180;494;48.744;10.106;2024-02-26T00:14:58;93493.00;;;6.20
30765;BMP180;494;48.744;10.106;2024-02-26T00:17:43;94042.00;;;5.40
30765;BMP180;494;48.744;10.106;2024-02-26T00:20:16;94168.00;;;6.20
30765;BMP180;494;48.744;10.106;2024-02-26T00:22:49;92975.00;;;3.40
30765;BMP180;494;48.744;10.106;2024-02-26T00:25:19;93812.00;;;6.40
30765;BMP180;494;48.744;10.106;2024-02-26T00:28:06;93095.00;;;6.10
30765;BMP180;494;48.744;10.106;2024-02-26T00:30:35;93913.00;;;6.40
30765;BMP180;494;48.744;10.106;2024-02-26T00:33:11;93431.00;;;6.40
30765;BMP180;494;48.744;10.106;2024-02-26T00:35:44;93117.00;;;6.30
30765;BMP180;494;48.744;10.106;2024-02-26T00:38:23;92873.00;;;6.40
30765;BMP180;494;48.744;10.106;2024-02-26T00:40:53;94068.00;;;6.70
30765;BMP180;494;48.744;10.106;2024-02-26T00:43:24;93107.00;;;6.30
30765;BMP180;494;48.744;10.106;2024-02-26T00:45:55;93962.00;;;6.30
30765;BMP180;494;48.744;10.106;2024-02-26T00:48:43;94036.00;;;6.40
30765;BMP180;494;48.744;10.106;2024-02-26T00:51:16;93213.00;;;5.90
30765;BMP180;494;48.744;10.106;2024-02-26T00:53:50;93974.00;;;5.30
30765;BMP180;494;48.744;10.106;2024-02-26T00:56:19;93284.00;;;6.40
30765;BMP180;494;48.744;10.106;2024-02-26T00:58:51;93992.00;;;6.50
30765;BMP180;494;48.744;10.106;2024-02-26T01:01:28;93099.00;;;6.10
30765;BMP180;494;48.744;10.106;2024-02-26T01:04:00;93328.00;;;6.50
30765;BMP180;494;48.744;10.106;2024-02-26T01:06:31;93996.00;;;3.90
30765;BMP180;494;48.744;10.106;2024-02-26T01:09:01;94008.00;;;6.40
30765;BMP180;494;48.744;10.106;2024-02-26T01:11:31;93899.00;;;3.60
30765;BMP180;494;48.744;10.106;2024-02-26T01:14:02;94031.00;;;4.90
30765;BMP180;494;48.744;10.106;2024-02-26T01:16:32;94052.00;;;2.90
30765;BMP180;494;48.744;10.106;2024-02-26T01:19:03;93812.00;;;5.70
30765;BMP180;494;48.744;10.106;2024-02-26T01:21:32;93130.00;;;2.60
30765;BMP180;494;48.744;10.106;2024-02-26T01:24:02;94065.00;;;6.50
30765;BMP180;494;48.744;10.106;2024-02-26T01:26:32;93112.00;;;5.30
30765;BMP180;494;48.744;10.106;2024-02-26T01:29:02;93987.00;;;6.60
30765;BMP180;494;48.744;10.106;2024-02-26T01:31:33;93267.00;;;6.30
30765;BMP180;494;48.744;10.106;2024-02-26T01:34:06;92663.00;;;6.40
30765;BMP180;494;48.744;10.106;2024-02-26T01:36:36;92800.00;;;6.30
30765;BMP180;494;48.744;10.106;2024-02-26T01:39:06;94065.00;;;2.60
30765;BMP180;494;48.744;10.106;2024-02-26T01:41:40;93983.00;;;5.90
30765;BMP180;494;48.744;10.106;2024-02-26T01:44:13;93923.00;;;5.10
30765;BMP180;494;48.744;10.106;2024-02-26T01:46:42;93084.00;;;6.20
30765;BMP180;494;48.744;10.106;2024-02-26T01:49:17;93812.00;;;6.50
30765;BMP180;494;48.744;10.106;2024-02-26T01:51:53;93993.00;;;6.40
30765;BMP180;494;48.744;10.106;2024-02-26T01:54:23;93985.00;;;6.50
30765;BMP180;494;48.744;10.106;2024-02-26T01:57:12;94119.00;;;6.50
30765;BMP180;494;48.744;10.106;2024-02-26T01:59:43;93879.00;;;3.60
30765;BMP180;494;48.744;10.106;2024-02-26T02:02:14;93971.00;;;6.30
30765;BMP180;494;48.744;10.106;2024-02-26T02:04:49;93091.00;;;5.90
30765;BMP180;494;48.744;10.106;2024-02-26T02:07:21;93162.00;;;6.30
30765;BMP180;494;48.744;10.106;2024-02-26T02:09:53;93255.00;;;3.20
30765;BMP180;494;48.744;10.106;2024-02-26T02:12:22;93915.00;;;5.20
30765;BMP180;494;48.744;10.106;2024-02-26T02:14:52;93853.00;;;6.10
30765;BMP180;494;48.744;10.106;2024-02-26T02:17:27;94035.00;;;6.40
30765;BMP180;494;48.744;10.106;2024-02-26T02:19:58;93069.00;;;5.50
30765;BMP180;494;48.744;10.106;2024-02-26T02:22:31;93102.00;;;4.60
30765;BMP180;494;48.744;10.106;2024-02-26T02:25:13;93309.00;;;6.50
30765;BMP180;494;48.744;10.106;2024-02-26T02:27:50;93480.00;;;6.30
30765;BMP180;494;48.744;10.106;2024-02-26T02:30:37;94005.00;;;6.60
30765;BMP180;494;48.744;10.106;2024-02-26T02:33:16;93861.00;;;6.00
30765;BMP180;494;48.744;10.106;2024-02-26T02:35:48;93349.00;;;6.40
30765;BMP180;494;48.744;10.106;2024-02-26T02:38:27;93154.00;;;6.40
30765;BMP180;494;48.744;10.106;2024-02-26T02:40:59;93865.00;;;6.40
30765;BMP180;494;48.744;10.106;2024-02-26T02:44:20;93875.00;;;6.40
30765;BMP180;494;48.744;10.106;2024-02-26T02:47:26;93880.00;;;3.80
30765;BMP180;494;48.744;10.106;2024-02-26T02:50:13;93892.00;;;6.60
30765;BMP180;494;48.744;10.106;2024-02-26T02:52:55;94255.00;;;6.60
30765;BMP180;494;48.744;10.106;2024-02-26T02:56:03;93818.00;;;6.80
30765;BMP180;494;48.744;10.106;2024-02-26T02:58:41;93618.00;;;6.80
30765;BMP180;494;48.744;10.106;2024-02-26T03:01:17;93472.00;;;6.80
30765;BMP180;494;48.744;10.106;2024-02-26T03:03:47;94019.00;;;5.80
30765;BMP180;494;48.744;10.106;2024-02-26T03:06:37;93167.00;;;6.60
30765;BMP180;494;48.744;10.106;2024-02-26T03:09:13;93129.00;;;5.90
30765;BMP180;494;48.744;10.106;2024-02-26T03:11:44;92924.00;;;6.70
30765;BMP180;494;48.744;10.106;2024-02-26T03:14:16;93061.00;;;6.80
30765;BMP180;494;48.744;10.106;2024-02-26T03:16:55;93133.00;;;6.90
30765;BMP180;494;48.744;10.106;2024-02-26T03:19:44;94015.00;;;3.50
30765;BMP180;494;48.744;10.106;2024-02-26T03:22:27;94088.00;;;6.90
30765;BMP180;494;48.744;10.106;2024-02-26T03:25:12;93379.00;;;6.70
30765;BMP180;494;48.744;10.106;2024-02-26T03:27:45;92761.00;;;5.60
30765;BMP180;494;48.744;10.106;2024-02-26T03:30:16;94016.00;;;6.80
30765;BMP180;494;48.744;10.106;2024-02-26T03:32:49;94076.00;;;6.80
30765;BMP180;494;48.744;10.106;2024-02-26T03:35:18;94002.00;;;3.10
30765;BMP180;494;48.744;10.106;2024-02-26T03:37:48;94130.00;;;6.60
30765;BMP180;494;48.744;10.106;2024-02-26T03:40:24;92632.00;;;6.80
30765;BMP180;494;48.744;10.106;2024-02-26T03:42:59;93866.00;;;6.40
30765;BMP180;494;48.744;10.106;2024-02-26T03:45:46;94210.00;;;6.30
30765;BMP180;494;48.744;10.106;2024-02-26T03:48:17;94204.00;;;6.10
30765;BMP180;494;48.744;10.106;2024-02-26T03:51:04;93934.00;;;3.50
30765;BMP180;494;48.744;10.106;2024-02-26T03:53:36;93231.00;;;5.80
30765;BMP180;494;48.744;10.106;2024-02-26T03:56:12;93270.00;;;3.70
30765;BMP180;494;48.744;10.106;2024-02-26T03:58:47;93922.00;;;5.80
30765;BMP180;494;48.744;10.106;2024-02-26T04:01:20;94000.00;;;3.00
30765;BMP180;494;48.744;10.106;2024-02-26T04:03:56;93928.00;;;6.60
30765;BMP180;494;48.744;10.106;2024-02-26T04:06:40;92718.00;;;6.60
30765;BMP180;494;48.744;10.106;2024-02-26T04:09:17;93201.00;;;5.60
30765;BMP180;494;48.744;10.106;2024-02-26T04:11:48;94038.00;;;2.60
30765;BMP180;494;48.744;10.106;2024-02-26T04:14:22;92919.00;;;3.00
30765;BMP180;494;48.744;10.106;2024-02-26T04:16:55;94143.00;;;4.70
30765;BMP180;494;48.744;10.106;2024-02-26T04:19:40;93872.00;;;6.80
30765;BMP180;494;48.744;10.106;2024-02-26T04:22:20;93115.00;;;6.90
30765;BMP180;494;48.744;10.106;2024-02-26T04:25:06;93116.00;;;6.80
30765;BMP180;494;48.744;10.106;2024-02-26T04:27:36;93208.00;;;7.00
30765;BMP180;494;48.744;10.106;2024-02-26T04:30:23;93338.00;;;3.60
30765;BMP180;494;48.744;10.106;2024-02-26T04:32:56;94079.00;;;6.60
30765;BMP180;494;48.744;10.106;2024-02-26T04:35:41;93495.00;;;6.50
30765;BMP180;494;48.744;10.106;2024-02-26T04:38:24;93912.00;;;6.50
30765;BMP180;494;48.744;10.106;2024-02-26T04:40:59;92515.00;;;2.70
30765;BMP180;494;48.744;10.106;2024-02-26T04:44:19;93896.00;;;5.80
30765;BMP180;494;48.744;10.106;2024-02-26T04:46:52;93926.00;;;6.50
30765;BMP180;494;48.744;10.106;2024-02-26T04:49:39;93613.00;;;1.60
30765;BMP180;494;48.744;10.106;2024-02-26T04:52:12;94098.00;;;6.40
30765;BMP180;494;48.744;10.106;2024-02-26T04:54:51;93920.00;;;5.60
30765;BMP180;494;48.744;10.106;2024-02-26T04:57:29;94079.00;;;5.60
30765;BMP180;494;48.744;10.106;2024-02-26T05:00:07;92921.00;;;6.60
30765;BMP180;494;48.744;10.106;2024-02-26T05:02:53;93875.00;;;5.90
30765;BMP180;494;48.744;10.106;2024-02-26T05:05:36;94074.00;;;6.60
30765;BMP180;494;48.744;10.106;2024-02-26T05:08:16;94037.00;;;6.70
30765;BMP180;494;48.744;10.106;2024-02-26T05:10:47;93225.00;;;6.80
30765;BMP180;494;48.744;10.106;2024-02-26T05:13:17;94030.00;;;3.00
30765;BMP180;494;48.744;10.106;2024-02-26T05:15:50;92982.00;;;6.70
30765;BMP180;494;48.744;10.106;2024-02-26T05:18:24;93205.00;;;3.80
30765;BMP180;494;48.744;10.106;2024-02-26T05:20:53;93384.00;;;5.90
30765;BMP180;494;48.744;10.106;2024-02-26T05:23:26;93435.00;;;6.50
30765;BMP180;494;48.744;10.106;2024-02-26T05:25:57;93361.00;;;3.30
30765;BMP180;494;48.744;10.106;2024-02-26T05:28:30;94011.00;;;3.90
30765;BMP180;494;48.744;10.106;2024-02-26T05:31:06;93925.00;;;6.80
30765;BMP180;494;48.744;10.106;2024-02-26T05:33:37;92976.00;;;6.30
30765;BMP180;494;48.744;10.106;2024-02-26T05:36:10;93871.00;;;6.10
30765;BMP180;494;48.744;10.106;2024-02-26T05:39:00;94019.00;;;4.20
30765;BMP180;494;48.744;10.106;2024-02-26T05:41:31;92977.00;;;7.30
30765;BMP180;494;48.744;10.106;2024-02-26T05:44:08;93869.00;;;7.10
30765;BMP180;494;48.744;10.106;2024-02-26T05:46:42;93210.00;;;5.20
30765;BMP180;494;48.744;10.106;2024-02-26T05:49:37;93895.00;;;7.30
30765;BMP180;494;48.744;10.106;2024-02-26T05:52:08;93973.00;;;7.00
30765;BMP180;494;48.744;10.106;2024-02-26T05:54:39;93672.00;;;7.30
30765;BMP180;494;48.744;10.106;2024-02-26T05:57:18;93138.00;;;6.80
30765;BMP180;494;48.744;10.106;2024-02-26T05:59:49;93241.00;;;7.20
30765;BMP180;494;48.744;10.106;2024-02-26T06:02:28;93206.00;;;7.30
30765;BMP180;494;48.744;10.106;2024-02-26T06:40:56;93163.00;;;7.10
30765;BMP180;494;48.744;10.106;2024-02-26T06:43:37;94026.00;;;7.40
30765;BMP180;494;48.744;10.106;2024-02-26T06:46:30;93910.00;;;7.10
30765;BMP180;494;48.744;10.106;2024-02-26T06:49:19;93531.00;;;7.60
30765;BMP180;494;48.744;10.106;2024-02-26T08:42:03;94030.00;;;8.10
30765;BMP180;494;48.744;10.106;2024-02-26T08:44:54;94123.00;;;10.80
30765;BMP180;494;48.744;10.106;2024-02-26T08:47:23;93709.00;;;10.80
30765;BMP180;494;48.744;10.106;2024-02-26T08:49:52;93910.00;;;10.80
30765;BMP180;494;48.744;10.106;2024-02-26T08:52:21;93943.00;;;10.00
30765;BMP180;494;48.744;10.106;2024-02-26T08:54:50;93874.00;;;11.00
30765;BMP180;494;48.744;10.106;2024-02-26T08:57:20;93563.00;;;11.20
30765;BMP180;494;48.744;10.106;2024-02-26T08:59:49;94110.00;;;10.30
30765;BMP180;494;48.744;10.106;2024-02-26T09:02:18;94059.00;;;10.00
30765;BMP180;494;48.744;10.106;2024-02-26T09:05:01;93957.00;;;11.20
30765;BMP180;494;48.744;10.106;2024-02-26T09:07:30;93465.00;;;11.40
30765;BMP180;494;48.744;10.106;2024-02-26T09:09:59;93345.00;;;10.90
30765;BMP180;494;48.744;10.106;2024-02-26T09:12:53;93998.00;;;11.40
30765;BMP180;494;48.744;10.106;2024-02-26T09:15:22;94023.00;;;11.50
30765;BMP180;494;48.744;10.106;2024-02-26T09:17:51;93839.00;;;11.10
30765;BMP180;494;48.744;10.106;2024-02-26T09:20:20;93940.00;;;11.50
30765;BMP180;494;48.744;10.106;2024-02-26T09:22:51;93865.00;;;11.90
30765;BMP180;494;48.744;10.106;2024-02-26T09:25:20;93788.00;;;11.40
30765;BMP180;494;48.744;10.106;2024-02-26T09:27:49;93851.00;;;10.50
30765;BMP180;494;48.744;10.106;2024-02-26T09:30:20;93123.00;;;12.30
30765;BMP180;494;48.744;10.106;2024-02-26T09:32:49;93940.00;;;10.70
30765;BMP180;494;48.744;10.106;2024-02-26T09:35:18;93856.00;;;12.40
30765;BMP180;494;48.744;10.106;2024-02-26T09:37:47;94024.00;;;11.30
30765;BMP180;494;48.744;10.106;2024-02-26T09:40:16;94025.00;;;12.40
30765;BMP180;494;48.744;10.106;2024-02-26T09:42:46;94093.00;;;12.60
30765;BMP180;494;48.744;10.106;2024-02-26T09:45:21;93924.00;;;12.30
30765;BMP180;494;48.744;10.106;2024-02-26T09:47:51;94057.00;;;12.80
30765;BMP180;494;48.744;10.106;2024-02-26T09:50:22;94041.00;;;12.80
30765;BMP180;494;48.744;10.106;2024-02-26T09:52:51;93843.00;;;11.10
30765;BMP180;494;48.744;10.106;2024-02-26T09:55:21;93903.00;;;13.00
30765;BMP180;494;48.744;10.106;2024-02-26T09:57:52;94095.00;;;13.20
30765;BMP180;494;48.744;10.106;2024-02-26T10:00:23;93709.00;;;13.30
30765;BMP180;494;48.744;10.106;2024-02-26T10:02:58;94072.00;;;12.40
30765;BMP180;494;48.744;10.106;2024-02-26T10:05:29;93893.00;;;11.80
30765;BMP180;494;48.744;10.106;2024-02-26T10:07:58;94058.00;;;13.70
30765;BMP180;494;48.744;10.106;2024-02-26T10:10:29;93434.00;;;13.80
30765;BMP180;494;48.744;10.106;2024-02-26T10:13:00;94073.00;;;14.10
30765;BMP180;494;48.744;10.106;2024-02-26T10:15:30;94062.00;;;14.20
30765;BMP180;494;48.744;10.106;2024-02-26T10:17:59;94060.00;;;14.20
30765;BMP180;494;48.744;10.106;2024-02-26T10:20:29;94034.00;;;13.20
30765;BMP180;494;48.744;10.106;2024-02-26T10:23:02;94118.00;;;14.60
30765;BMP180;494;48.744;10.106;2024-02-26T10:25:31;94121.00;;;14.50
30765;BMP180;494;48.744;10.106;2024-02-26T10:28:01;94004.00;;;14.10
30765;BMP180;494;48.744;10.106;2024-02-26T10:30:37;94102.00;;;13.00
30765;BMP180;494;48.744;10.106;2024-02-26T10:33:07;94066.00;;;14.70
30765;BMP180;494;48.744;10.106;2024-02-26T10:35:36;93971.00;;;15.10
30765;BMP180;494;48.744;10.106;2024-02-26T10:38:08;94012.00;;;15.50
30765;BMP180;494;48.744;10.106;2024-02-26T10:40:39;94160.00;;;15.40
30765;BMP180;494;48.744;10.106;2024-02-26T10:43:08;94120.00;;;15.60
30765;BMP180;494;48.744;10.106;2024-02-26T10:45:38;93946.00;;;16.40
30765;BMP180;494;48.744;10.106;2024-02-26T10:48:25;93999.00;;;17.00
30765;BMP180;494;48.744;10.106;2024-02-26T10:50:54;93956.00;;;17.10
30765;BMP180;494;48.744;10.106;2024-02-26T10:53:29;93945.00;;;17.30
30765;BMP180;494;48.744;10.106;2024-02-26T10:56:04;93928.00;;;18.10
30765;BMP180;494;48.744;10.106;2024-02-26T10:58:34;94007.00;;;18.10
30765;BMP180;494;48.744;10.106;2024-02-26T11:01:19;93822.00;;;18.20
30765;BMP180;494;48.744;10.106;2024-02-26T11:03:52;94138.00;;;16.30
30765;BMP180;494;48.744;10.106;2024-02-26T11:06:22;94077.00;;;17.90
30765;BMP180;494;48.744;10.106;2024-02-26T11:08:53;94091.00;;;19.40
30765;BMP180;494;48.744;10.106;2024-02-26T11:11:22;93977.00;;;18.70
30765;BMP180;494;48.744;10.106;2024-02-26T11:13:52;93522.00;;;18.40
30765;BMP180;494;48.744;10.106;2024-02-26T11:16:26;94020.00;;;17.00
30765;BMP180;494;48.744;10.106;2024-02-26T11:18:57;93770.00;;;18.10
30765;BMP180;494;48.744;10.106;2024-02-26T11:21:27;94191.00;;;17.70
30765;BMP180;494;48.744;10.106;2024-02-26T11:24:08;93527.00;;;15.40
30765;BMP180;494;48.744;10.106;2024-02-26T11:26:44;93461.00;;;16.90
30765;BMP180;494;48.744;10.106;2024-02-26T11:29:21;93786.00;;;17.10
30765;BMP180;494;48.744;10.106;2024-02-26T11:31:53;93913.00;;;16.90
30765;BMP180;494;48.744;10.106;2024-02-26T11:34:22;94056.00;;;17.10
30765;BMP180;494;48.744;10.106;2024-02-26T11:36:51;93898.00;;;15.90
30765;BMP180;494;48.744;10.106;2024-02-26T11:39:20;93778.00;;;17.30
30765;BMP180;494;48.744;10.106;2024-02-26T11:41:51;93858.00;;;15.90
30765;BMP180;494;48.744;10.106;2024-02-26T11:44:29;93818.00;;;16.80
30765;BMP180;494;48.744;10.106;2024-02-26T11:47:10;94095.00;;;17.90
30765;BMP180;494;48.744;10.106;2024-02-26T11:49:51;94037.00;;;17.40
30765;BMP180;494;48.744;10.106;2024-02-26T11:52:19;94035.00;;;18.00
30765;BMP180;494;48.744;10.106;2024-02-26T11:54:50;94040.00;;;17.10
30765;BMP180;494;48.744;10.106;2024-02-26T11:57:25;93815.00;;;16.70
30765;BMP180;494;48.744;10.106;2024-02-26T11:59:56;93372.00;;;16.80
30765;BMP180;494;48.744;10.106;2024-02-26T12:02:45;93874.00;;;17.20
30765;BMP180;494;48.744;10.106;2024-02-26T12:05:16;93920.00;;;16.10
30765;BMP180;494;48.744;10.106;2024-02-26T12:07:49;94036.00;;;17.10
30765;BMP180;494;48.744;10.106;2024-02-26T12:10:25;93750.00;;;17.30
30765;BMP180;494;48.744;10.106;2024-02-26T12:12:59;94100.00;;;16.50
30765;BMP180;494;48.744;10.106;2024-02-26T12:15:33;93519.00;;;16.40
30765;BMP180;494;48.744;10.106;2024-02-26T12:18:07;93988.00;;;16.60
30765;BMP180;494;48.744;10.106;2024-02-26T12:20:37;94042.00;;;16.40
30765;BMP180;494;48.744;10.106;2024-02-26T12:23:06;93962.00;;;15.60
30765;BMP180;494;48.744;10.106;2024-02-26T12:25:35;93835.00;;;16.50
30765;BMP180;494;48.744;10.106;2024-02-26T12:28:04;93814.00;;;16.30
30765;BMP180;494;48.744;10.106;2024-02-26T12:30:33;93947.00;;;15.50
30765;BMP180;494;48.744;10.106;2024-02-26T12:33:05;93749.00;;;15.70
30765;BMP180;494;48.744;10.106;2024-02-26T12:35:36;93973.00;;;14.80
30765;BMP180;494;48.744;10.106;2024-02-26T12:38:04;94001.00;;;14.70
30765;BMP180;494;48.744;10.106;2024-02-26T12:40:33;94118.00;;;15.00
30765;BMP180;494;48.744;10.106;2024-02-26T12:43:02;94086.00;;;14.90
30765;BMP180;494;48.744;10.106;2024-02-26T12:45:31;94080.00;;;14.90
30765;BMP180;494;48.744;10.106;2024-02-26T12:48:01;94048.00;;;14.80
30765;BMP180;494;48.744;10.106;2024-02-26T12:50:31;93993.00;;;13.60
30765;BMP180;494;48.744;10.106;2024-02-26T12:53:01;94189.00;;;14.60
30765;BMP180;494;48.744;10.106;2024-02-26T12:55:30;93392.00;;;14.60
30765;BMP180;494;48.744;10.106;2024-02-26T12:58:02;93902.00;;;14.70
30765;BMP180;494;48.744;10.106;2024-02-26T13:00:32;94080.00;;;14.70
30765;BMP180;494;48.744;10.106;2024-02-26T13:03:02;94000.00;;;14.80
30765;BMP180;494;48.744;10.106;2024-02-26T13:05:33;93924.00;;;14.80
30765;BMP180;494;48.744;10.106;2024-02-26T13:08:04;94068.00;;;14.60
30765;BMP180;494;48.744;10.106;2024-02-26T13:10:36;93422.00;;;14.70
30765;BMP180;494;48.744;10.106;2024-02-26T13:13:05;94114.00;;;14.60
30765;BMP180;494;48.744;10.106;2024-02-26T13:15:35;94118.00;;;14.70
30765;BMP180;494;48.744;10.106;2024-02-26T13:18:10;94153.00;;;14.70
30765;BMP180;494;48.744;10.106;2024-02-26T13:20:41;93903.00;;;13.10
30765;BMP180;494;48.744;10.106;2024-02-26T13:23:12;94017.00;;;14.40
30765;BMP180;494;48.744;10.106;2024-02-26T13:25:41;94053.00;;;14.70
30765;BMP180;494;48.744;10.106;2024-02-26T13:28:16;94124.00;;;14.60
30765;BMP180;494;48.744;10.106;2024-02-26T13:30:51;94032.00;;;14.60
30765;BMP180;494;48.744;10.106;2024-02-26T13:33:22;94167.00;;;13.00
30765;BMP180;494;48.744;10.106;2024-02-26T13:35:53;94143.00;;;14.80
30765;BMP180;494;48.744;10.106;2024-02-26T13:38:22;94117.00;;;14.30
30765;BMP180;494;48.744;10.106;2024-02-26T13:40:52;94153.00;;;14.80
30765;BMP180;494;48.744;10.106;2024-02-26T13:43:21;93988.00;;;14.90
30765;BMP180;494;48.744;10.106;2024-02-26T13:45:50;94122.00;;;15.00
30765;BMP180;494;48.744;10.106;2024-02-26T13:48:19;94048.00;;;14.00
30765;BMP180;494;48.744;10.106;2024-02-26T13:50:48;94117.00;;;14.80
30765;BMP180;494;48.744;10.106;2024-02-26T13:53:19;94158.00;;;14.70
30765;BMP180;494;48.744;10.106;2024-02-26T13:55:51;93492.00;;;14.90
30765;BMP180;494;48.744;10.106;2024-02-26T13:58:19;94109.00;;;15.00
30765;BMP180;494;48.744;10.106;2024-02-26T14:00:51;93949.00;;;14.80
30765;BMP180;494;48.744;10.106;2024-02-26T14:03:20;94127.00;;;14.90
30765;BMP180;494;48.744;10.106;2024-02-26T14:05:49;94137.00;;;15.10
30765;BMP180;494;48.744;10.106;2024-02-26T14:08:19;93706.00;;;15.10
30765;BMP180;494;48.744;10.106;2024-02-26T14:10:48;94297.00;;;15.20
30765;BMP180;494;48.744;10.106;2024-02-26T14:13:18;93993.00;;;15.10
30765;BMP180;494;48.744;10.106;2024-02-26T14:15:48;93923.00;;;14.00
30765;BMP180;494;48.744;10.106;2024-02-26T14:18:17;93669.00;;;14.50
30765;BMP180;494;48.744;10.106;2024-02-26T14:20:46;94074.00;;;15.60
30765;BMP180;494;48.744;10.106;2024-02-26T14:23:15;94025.00;;;15.50
30765;BMP180;494;48.744;10.106;2024-02-26T14:25:45;93653.00;;;14.70
30765;BMP180;494;48.744;10.106;2024-02-26T14:28:14;93980.00;;;15.40
30765;BMP180;494;48.744;10.106;2024-02-26T14:30:51;94050.00;;;15.20
30765;BMP180;494;48.744;10.106;2024-02-26T14:33:20;94103.00;;;15.50
30765;BMP180;494;48.744;10.106;2024-02-26T14:35:49;93914.00;;;15.10
30765;BMP180;494;48.744;10.106;2024-02-26T14:38:23;94012.00;;;15.50
30765;BMP180;494;48.744;10.106;2024-02-26T14:40:54;94121.00;;;15.50
30765;BMP180;494;48.744;10.106;2024-02-26T14:43:23;94242.00;;;15.60
30765;BMP180;494;48.744;10.106;2024-02-26T14:45:52;93845.00;;;15.10
30765;BMP180;494;48.744;10.106;2024-02-26T14:48:21;94143.00;;;14.70
30765;BMP180;494;48.744;10.106;2024-02-26T14:50:50;94009.00;;;15.30
30765;BMP180;494;48.744;10.106;2024-02-26T14:53:19;93903.00;;;15.00
30765;BMP180;494;48.744;10.106;2024-02-26T14:55:48;94082.00;;;13.50
30765;BMP180;494;48.744;10.106;2024-02-26T14:58:19;94280.00;;;14.90
30765;BMP180;494;48.744;10.106;2024-02-26T15:00:48;94139.00;;;14.80
30765;BMP180;494;48.744;10.106;2024-02-26T15:03:21;93744.00;;;14.30
30765;BMP180;494;48.744;10.106;2024-02-26T15:05:50;94105.00;;;15.20
30765;BMP180;494;48.744;10.106;2024-02-26T15:08:19;94008.00;;;13.10
30765;BMP180;494;48.744;10.106;2024-02-26T15:10:47;93673.00;;;14.50
30765;BMP180;494;48.744;10.106;2024-02-26T15:13:18;93698.00;;;15.00
30765;BMP180;494;48.744;10.106;2024-02-26T15:15:46;94133.00;;;14.90
30765;BMP180;494;48.744;10.106;2024-02-26T15:18:15;93544.00;;;13.80
30765;BMP180;494;48.744;10.106;2024-02-26T15:20:45;94208.00;;;14.80
30765;BMP180;494;48.744;10.106;2024-02-26T15:23:14;93278.00;;;13.60
30765;BMP180;494;48.744;10.106;2024-02-26T15:25:45;94073.00;;;14.70
30765;BMP180;494;48.744;10.106;2024-02-26T15:28:14;93988.00;;;14.40
30765;BMP180;494;48.744;10.106;2024-02-26T15:30:45;94154.00;;;14.20
30765;BMP180;494;48.744;10.106;2024-02-26T15:33:15;94022.00;;;14.20
30765;BMP180;494;48.744;10.106;2024-02-26T15:35:45;94154.00;;;14.10
30765;BMP180;494;48.744;10.106;2024-02-26T15:38:13;94157.00;;;13.80
30765;BMP180;494;48.744;10.106;2024-02-26T15:40:42;94090.00;;;14.00
30765;BMP180;494;48.744;10.106;2024-02-26T15:43:11;94136.00;;;14.00
30765;BMP180;494;48.744;10.106;2024-02-26T15:45:44;93375.00;;;13.90
30765;BMP180;494;48.744;10.106;2024-02-26T15:48:16;94069.00;;;13.80
30765;BMP180;494;48.744;10.106;2024-02-26T15:50:44;93572.00;;;13.10
30765;BMP180;494;48.744;10.106;2024-02-26T15:53:14;93894.00;;;13.10
30765;BMP180;494;48.744;10.106;2024-02-26T15:55:43;94059.00;;;14.00
30765;BMP180;494;48.744;10.106;2024-02-26T15:58:12;94223.00;;;13.90
30765;BMP180;494;48.744;10.106;2024-02-26T16:00:41;94192.00;;;13.90
30765;BMP180;494;48.744;10.106;2024-02-26T16:03:12;93982.00;;;12.80
30765;BMP180;494;48.744;10.106;2024-02-26T16:05:41;93950.00;;;13.90
30765;BMP180;494;48.744;10.106;2024-02-26T16:08:16;94067.00;;;13.60
30765;BMP180;494;48.744;10.106;2024-02-26T16:10:48;93630.00;;;13.90
30765;BMP180;494;48.744;10.106;2024-02-26T16:13:17;94010.00;;;13.40
30765;BMP180;494;48.744;10.106;2024-02-26T16:15:53;93970.00;;;12.90
30765;BMP180;494;48.744;10.106;2024-02-26T16:18:26;94194.00;;;13.70
30765;BMP180;494;48.744;10.106;2024-02-26T16:20:55;93675.00;;;13.50
30765;BMP180;494;48.744;10.106;2024-02-26T16:23:24;93950.00;;;13.60
30765;BMP180;494;48.744;10.106;2024-02-26T16:25:53;94121.00;;;13.60
30765;BMP180;494;48.744;10.106;2024-02-26T16:28:22;93747.00;;;13.40
30765;BMP180;494;48.744;10.106;2024-02-26T16:30:54;94143.00;;;12.70
30765;BMP180;494;48.744;10.106;2024-02-26T16:33:22;93861.00;;;13.30
30765;BMP180;494;48.744;10.106;2024-02-26T16:35:55;94229.00;;;13.20
30765;BMP180;494;48.744;10.106;2024-02-26T16:38:24;94218.00;;;13.10
30765;BMP180;494;48.744;10.106;2024-02-26T16:40:53;94337.00;;;13.20
30765;BMP180;494;48.744;10.106;2024-02-26T16:43:36;94284.00;;;12.70
30765;BMP180;494;48.744;10.106;2024-02-26T16:46:05;94136.00;;;12.80
30765;BMP180;494;48.744;10.106;2024-02-26T16:48:34;94328.00;;;11.70
30765;BMP180;494;48.744;10.106;2024-02-26T16:51:06;93942.00;;;12.00
30765;BMP180;494;48.744;10.106;2024-02-26T16:53:35;93343.00;;;13.00
30765;BMP180;494;48.744;10.106;2024-02-26T16:56:09;93923.00;;;12.90
30765;BMP180;494;48.744;10.106;2024-02-26T16:58:38;94222.00;;;12.80
30765;BMP180;494;48.744;10.106;2024-02-26T17:01:07;94179.00;;;12.80
30765;BMP180;494;48.744;10.106;2024-02-26T17:03:38;94143.00;;;12.90
30765;BMP180;494;48.744;10.106;2024-02-26T17:06:09;94134.00;;;12.80
30765;BMP180;494;48.744;10.106;2024-02-26T17:08:38;94064.00;;;12.30
30765;BMP180;494;48.744;10.106;2024-02-26T17:11:08;94077.00;;;12.60
30765;BMP180;494;48.744;10.106;2024-02-26T17:13:37;93982.00;;;11.50
30765;BMP180;494;48.744;10.106;2024-02-26T17:16:06;94238.00;;;12.70
30765;BMP180;494;48.744;10.106;2024-02-26T17:18:35;94273.00;;;12.70
30765;BMP180;494;48.744;10.106;2024-02-26T17:21:04;94083.00;;;12.70
30765;BMP180;494;48.744;10.106;2024-02-26T17:23:34;94163.00;;;12.20
30765;BMP180;494;48.744;10.106;2024-02-26T17:26:04;94298.00;;;11.50
30765;BMP180;494;48.744;10.106;2024-02-26T17:28:36;94289.00;;;12.50